Friday, November 15, 2019, 5:57 AM EST
Back to Local

KBDR, Sikorsky Memorial Airport

Location: Stratford, CT, United States Lat: 41.167
Local Time: 5:57 AM EST (10:57 GMT) Lon: -73.133
Time Zone: US/Eastern Elev: 9 ft

Show me the last for .
Show Decoded

2019-11-15 04:52 METAR KBDR 150952Z AUTO 26004KT 10SM CLR 02/M04 A3023 RMK AO2 SLP237 T00221039 =
2019-11-15 03:52 METAR KBDR 150852Z AUTO 25004KT 10SM CLR 03/M03 A3023 RMK AO2 SLP236 T00281033
                 58013 =
2019-11-15 02:52 METAR KBDR 150752Z AUTO 26006KT 10SM CLR 04/M04 A3024 RMK AO2 SLP240 T00391044 =
2019-11-15 01:52 METAR KBDR 150652Z AUTO 27005KT 10SM CLR 04/M04 A3026 RMK AO2 SLP246 T00441039 =
2019-11-15 00:52 METAR KBDR 150552Z AUTO 26004KT 10SM CLR 05/M04 A3027 RMK AO2 SLP249 T00501039
                 10078 20044 58008 =
2019-11-14 23:52 METAR KBDR 150452Z AUTO 28007KT 10SM FEW120 06/M04 A3029 RMK AO2 SLP255
                 T00561039 400781044 =
2019-11-14 22:52 METAR KBDR 150352Z AUTO 26006KT 10SM CLR 06/M03 A3029 RMK AO2 SLP256 T00561033 =
2019-11-14 21:52 METAR KBDR 150252Z 30004KT 10SM CLR 04/M03 A3029 RMK AO2 SLP257 T00441033 56004
                 =
2019-11-14 20:52 METAR KBDR 150152Z 24010KT 10SM CLR 08/M03 A3029 RMK AO2 SLP258 T00781028 =
2019-11-14 19:52 METAR KBDR 150052Z 23013KT 10SM CLR 08/M02 A3029 RMK AO2 SLP256 T00781022 =
2019-11-14 18:52 METAR KBDR 142352Z 22013KT 10SM FEW032 08/02 A3030 RMK AO2 SLP261 T00780017
                 10078 20050 56012 =
2019-11-14 17:52 METAR KBDR 142252Z 21012G16KT 10SM BKN033 08/01 A3031 RMK AO2 SLP265 T00780011 =
2019-11-14 16:52 METAR KBDR 142152Z 20008KT 10SM BKN037 07/00 A3032 RMK AO2 SLP268 T00720000 =
2019-11-14 15:52 METAR KBDR 142052Z 27003KT 10SM CLR 06/M02 A3034 RMK AO2 SLP273 T00611022 56015
                 =
2019-11-14 14:52 METAR KBDR 141952Z 00000KT 10SM CLR 06/M02 A3035 RMK AO2 SLP276 T00561022 =
2019-11-14 13:52 METAR KBDR 141852Z 24004KT 10SM CLR 06/M02 A3036 RMK AO2 SLP281 T00561017 =
2019-11-14 12:52 METAR KBDR 141752Z 23006KT 10SM CLR 05/M02 A3038 RMK AO2 SLP288 T00501017 10050
                 21039 58024 =
2019-11-14 11:52 METAR KBDR 141652Z 22004KT 10SM CLR 04/M04 A3041 RMK AO2 SLP296 T00391044 =
2019-11-14 10:52 METAR KBDR 141552Z 00000KT 10SM CLR 03/M05 A3044 RMK AO2 SLP306 T00281050 =
2019-11-14 09:52 METAR KBDR 141452Z 35007KT 10SM FEW030 BKN037 01/M07 A3046 RMK AO2 SLP312
                 T00061067 51004 =
2019-11-14 08:52 METAR KBDR 141352Z 35009KT 10SM BKN038 OVC047 M01/M08 A3046 RMK AO2 SLP312
                 T10111083 =
2019-11-14 07:52 METAR KBDR 141252Z 02005KT 10SM FEW031 OVC039 M02/M09 A3046 RMK AO2 SLP314
                 T10221094 =
2019-11-14 06:52 METAR KBDR 141152Z 03007KT 10SM CLR M04/M12 A3044 RMK AO2 SLP309 T10391117 11039
                 21044 56004 =

Support USWX by starting your Amazon purchase here.